createdAt,value
2019-05-20T00:00:50.325Z,97044.70
2019-05-20T00:07:20.993Z,97043.30
2019-05-20T00:13:57.903Z,97041.41
2019-05-20T00:24:04.950Z,97040.50
2019-05-20T00:29:54.594Z,97037.63
2019-05-20T00:36:22.234Z,97036.36
2019-05-20T00:42:49.312Z,97035.13
2019-05-20T00:49:30.235Z,97032.53
2019-05-20T00:55:56.067Z,97026.45
2019-05-20T01:02:23.655Z,97034.05
2019-05-20T01:09:04.670Z,97028.70
2019-05-20T01:15:31.694Z,97033.56
2019-05-20T01:25:33.451Z,97033.39
2019-05-20T01:32:00.119Z,97035.77
2019-05-20T01:38:28.323Z,97026.59
2019-05-20T01:45:09.297Z,97034.44
2019-05-20T01:51:39.790Z,97047.66
2019-05-20T01:58:05.639Z,97049.72
2019-05-20T02:04:44.934Z,97051.49
2019-05-20T02:11:07.586Z,97048.31
2019-05-20T02:17:32.533Z,97043.05
2019-05-20T02:27:22.384Z,97027.33
2019-05-20T02:33:52.773Z,97029.59
2019-05-20T02:40:32.984Z,97019.31
2019-05-20T02:47:03.086Z,97021.26
2019-05-20T02:53:27.883Z,97019.44
2019-05-20T03:00:08.855Z,97024.03
2019-05-20T03:06:34.671Z,97034.57
2019-05-20T03:13:02.308Z,97034.48
2019-05-20T03:19:39.216Z,97044.02
2019-05-20T03:29:10.615Z,97052.83
2019-05-20T03:35:12.686Z,97047.59
2019-05-20T03:41:38.505Z,97053.66
2019-05-20T03:48:04.335Z,97054.59
2019-05-20T03:54:47.879Z,97061.22
2019-05-20T04:01:18.184Z,97055.98
2019-05-20T04:07:44.006Z,97058.24
2019-05-20T04:14:09.826Z,97063.42
2019-05-20T04:20:52.816Z,97067.35
2019-05-20T04:30:31.351Z,97068.16
2019-05-20T04:36:55.978Z,97064.08
2019-05-20T04:43:21.818Z,97059.05
2019-05-20T04:49:47.992Z,97065.66
2019-05-20T04:56:31.995Z,97053.66
2019-05-20T05:02:56.574Z,97059.11
2019-05-20T05:09:22.420Z,97068.38
2019-05-20T05:15:59.327Z,97081.53
2019-05-20T05:22:29.418Z,97088.13
2019-05-20T05:32:07.135Z,97086.52
2019-05-20T05:38:33.969Z,97086.19
2019-05-20T05:45:00.798Z,97086.03
2019-05-20T05:51:39.531Z,97093.75
2019-05-20T05:57:54.455Z,97089.02
2019-05-20T06:04:23.030Z,97098.94
2019-05-20T06:11:02.256Z,97113.25
2019-05-20T06:17:34.138Z,97113.47
2019-05-20T06:24:06.299Z,97112.65
2019-05-20T06:33:31.614Z,97116.24
2019-05-20T06:40:02.482Z,97117.89
2019-05-20T06:46:40.424Z,97109.49
2019-05-20T06:53:04.228Z,97117.20
2019-05-20T06:59:31.840Z,97126.09
2019-05-20T07:05:57.692Z,97131.36
2019-05-20T07:12:22.695Z,97136.16
2019-05-20T07:18:52.560Z,97142.08
2019-05-20T07:25:18.426Z,97135.40
2019-05-20T07:31:40.151Z,97141.94
2019-05-20T07:37:52.609Z,97135.14
2019-05-20T07:44:18.453Z,97135.13
2019-05-20T07:50:47.540Z,97124.23
2019-05-20T07:57:28.498Z,97130.38
2019-05-20T08:03:54.317Z,97145.03
2019-05-20T08:10:20.135Z,97137.27
2019-05-20T08:16:57.067Z,97150.06
2019-05-20T08:23:22.887Z,97157.59
2019-05-20T08:29:52.749Z,97160.13
2019-05-20T08:39:53.485Z,97167.86
2019-05-20T08:46:20.524Z,97168.17
2019-05-20T08:52:59.477Z,97173.33
2019-05-20T08:59:29.047Z,97181.12
2019-05-20T09:05:55.157Z,97177.58
2019-05-20T09:12:32.101Z,97173.11
2019-05-20T09:18:55.889Z,97178.84
2019-05-20T09:25:25.152Z,97170.61
2019-05-20T09:31:41.473Z,97175.95
2019-05-20T09:41:06.832Z,97183.43
2019-05-20T09:47:32.694Z,97184.29
2019-05-20T09:54:01.417Z,97176.97
2019-05-20T10:00:29.585Z,97172.97
2019-05-20T10:06:55.146Z,97173.50
2019-05-20T10:13:40.250Z,97178.94
2019-05-20T10:20:09.787Z,97182.48
2019-05-20T10:26:39.090Z,97176.25
2019-05-20T10:32:41.705Z,97179.70
2019-05-20T10:43:07.716Z,97184.18
2019-05-20T10:49:31.564Z,97188.96
2019-05-20T10:55:55.314Z,97189.59
2019-05-20T11:02:23.361Z,97184.42
2019-05-20T11:09:13.119Z,97189.45
2019-05-20T11:15:29.131Z,97192.08
2019-05-20T11:21:31.335Z,97199.79
2019-05-20T11:27:57.535Z,97203.70
2019-05-20T11:34:34.515Z,97204.61
2019-05-20T11:44:40.482Z,97202.38
2019-05-20T11:51:11.337Z,97208.02
2019-05-20T11:57:37.156Z,97202.73
2019-05-20T12:04:16.112Z,97200.82
2019-05-20T12:10:44.600Z,97205.05
2019-05-20T12:17:14.818Z,97201.89
2019-05-20T12:23:19.178Z,97209.55
2019-05-20T12:30:02.444Z,97205.64
2019-05-20T12:36:30.056Z,97211.23
2019-05-20T12:46:35.229Z,97215.11
2019-05-20T12:52:59.047Z,97219.42
2019-05-20T12:59:35.751Z,97214.13
2019-05-20T13:06:01.613Z,97213.80
2019-05-20T13:12:26.603Z,97218.82
2019-05-20T13:18:56.103Z,97218.73
2019-05-20T13:24:55.801Z,97221.15
2019-05-20T13:31:19.625Z,97211.31
2019-05-20T13:37:46.659Z,97213.02
2019-05-20T13:47:52.653Z,97218.37
2019-05-20T13:54:19.523Z,97212.80
2019-05-20T14:00:47.334Z,97212.52
2019-05-20T14:07:12.908Z,97209.84
2019-05-20T14:13:38.763Z,97212.27
2019-05-20T14:20:21.816Z,97206.74
2019-05-20T14:26:48.786Z,97211.77
2019-05-20T14:33:14.607Z,97213.08
2019-05-20T14:39:53.557Z,97209.92
2019-05-20T14:46:06.048Z,97214.33
2019-05-20T14:52:33.083Z,97218.25
2019-05-20T14:59:02.931Z,97216.83
2019-05-20T15:05:40.192Z,97221.59
2019-05-20T15:12:09.501Z,97224.42
2019-05-20T15:18:33.311Z,97218.55
2019-05-20T15:24:35.105Z,97220.30
2019-05-20T15:31:14.771Z,97224.16
2019-05-20T15:37:40.889Z,97218.06
2019-05-20T15:44:06.713Z,97235.19
2019-05-20T15:54:13.725Z,97253.41
2019-05-20T16:00:52.462Z,97255.48
2019-05-20T16:06:42.135Z,97249.09
2019-05-20T16:13:07.707Z,97245.73
2019-05-20T16:19:33.557Z,97251.30
2019-05-20T16:26:12.515Z,97242.59
2019-05-20T16:32:41.236Z,97240.53
2019-05-20T16:39:11.430Z,97240.82
2019-05-20T16:45:52.398Z,97242.44
2019-05-20T16:55:55.136Z,97239.09
2019-05-20T17:02:25.889Z,97231.35
2019-05-20T17:09:05.189Z,97225.06
2019-05-20T17:15:33.030Z,97234.23
2019-05-20T17:21:58.849Z,97227.10
2019-05-20T17:28:24.445Z,97229.47
2019-05-20T17:34:48.248Z,97235.13
2019-05-20T17:41:25.425Z,97252.62
2019-05-20T17:47:55.111Z,97262.57
2019-05-20T17:57:56.215Z,97273.98
2019-05-20T18:04:23.062Z,97283.20
2019-05-20T18:10:50.878Z,97282.77
2019-05-20T18:17:30.755Z,97293.33
2019-05-20T18:23:55.658Z,97304.30
2019-05-20T18:30:28.535Z,97306.47
2019-05-20T18:37:09.196Z,97306.44
2019-05-20T18:43:37.357Z,97295.45
2019-05-20T18:50:02.939Z,97307.33
2019-05-20T19:02:14.417Z,97339.45
2019-05-20T19:08:57.403Z,97337.27
2019-05-20T19:14:46.861Z,97339.01
2019-05-20T19:21:12.682Z,97354.35
2019-05-20T19:27:51.627Z,97360.14
2019-05-20T19:34:17.454Z,97353.89
2019-05-20T19:40:43.043Z,97360.78
2019-05-20T19:47:26.912Z,97369.00
2019-05-20T19:53:55.114Z,97385.55
2019-05-20T20:00:20.927Z,97397.60
2019-05-20T20:06:57.854Z,97407.30
2019-05-20T20:16:30.528Z,97407.72
2019-05-20T20:22:23.026Z,97411.63
2019-05-20T20:28:49.548Z,97422.69
2019-05-20T20:35:17.685Z,97423.38
2019-05-20T20:41:43.290Z,97420.02
2019-05-20T20:48:22.249Z,97412.55
2019-05-20T20:54:49.285Z,97408.09
2019-05-20T21:01:15.105Z,97407.36
2019-05-20T21:07:54.056Z,97412.97
2019-05-20T21:17:32.786Z,97412.23
2019-05-20T21:24:00.403Z,97413.13
2019-05-20T21:30:31.161Z,97408.84
2019-05-20T21:36:59.335Z,97407.43
2019-05-20T21:43:36.265Z,97400.55
2019-05-20T21:50:03.867Z,97407.65
2019-05-20T21:56:29.720Z,97409.59
2019-05-20T22:03:06.627Z,97408.17
2019-05-20T22:06:19.765Z,97408.23
2019-05-20T22:12:56.470Z,97413.14
2019-05-20T22:18:46.151Z,97418.70
2019-05-20T22:25:11.972Z,97427.00
2019-05-20T22:31:59.022Z,97427.05
2019-05-20T22:38:39.976Z,97431.50
2019-05-20T22:45:06.803Z,97426.59
2019-05-20T22:51:32.378Z,97439.98
2019-05-20T22:57:56.180Z,97428.18
2019-05-20T23:04:35.138Z,97421.60
2019-05-20T23:11:00.995Z,97426.25
2019-05-20T23:20:38.917Z,97427.48
2019-05-20T23:27:06.783Z,97426.17
2019-05-20T23:33:32.574Z,97428.45
2019-05-20T23:40:13.287Z,97427.68
2019-05-20T23:46:42.007Z,97423.30
2019-05-20T23:53:08.214Z,97421.48
2019-05-20T23:59:50.916Z,97424.11
